sensor_id;sensor_type;location;lat;lon;timestamp;P1;durP1;ratioP1;P2;durP2;ratioP2
34960;SDS011;30789;52.030;7.110;2023-04-29T00:00:24;64.15;;;31.48;;
34960;SDS011;30789;52.030;7.110;2023-04-29T00:02:51;68.50;;;30.60;;
34960;SDS011;30789;52.030;7.110;2023-04-29T00:05:18;66.32;;;30.20;;
34960;SDS011;30789;52.030;7.110;2023-04-29T00:07:45;67.47;;;30.42;;
34960;SDS011;30789;52.030;7.110;2023-04-29T00:10:11;65.20;;;29.27;;
34960;SDS011;30789;52.030;7.110;2023-04-29T00:12:40;63.35;;;27.75;;
34960;SDS011;30789;52.030;7.110;2023-04-29T00:15:06;57.58;;;27.92;;
34960;SDS011;30789;52.030;7.110;2023-04-29T00:17:33;56.63;;;29.25;;
34960;SDS011;30789;52.030;7.110;2023-04-29T00:20:00;62.00;;;28.25;;
34960;SDS011;30789;52.030;7.110;2023-04-29T00:22:27;60.08;;;27.15;;
34960;SDS011;30789;52.030;7.110;2023-04-29T00:24:54;52.97;;;26.23;;
34960;SDS011;30789;52.030;7.110;2023-04-29T00:27:21;55.80;;;26.60;;
34960;SDS011;30789;52.030;7.110;2023-04-29T00:29:48;56.88;;;26.52;;
34960;SDS011;30789;52.030;7.110;2023-04-29T00:32:15;55.40;;;25.67;;
34960;SDS011;30789;52.030;7.110;2023-04-29T00:34:41;50.72;;;25.85;;
34960;SDS011;30789;52.030;7.110;2023-04-29T00:37:08;56.63;;;25.27;;
34960;SDS011;30789;52.030;7.110;2023-04-29T00:39:34;50.55;;;25.10;;
34960;SDS011;30789;52.030;7.110;2023-04-29T00:42:01;53.20;;;24.92;;
34960;SDS011;30789;52.030;7.110;2023-04-29T00:44:28;44.10;;;22.73;;
34960;SDS011;30789;52.030;7.110;2023-04-29T00:46:55;47.95;;;24.48;;
34960;SDS011;30789;52.030;7.110;2023-04-29T00:49:23;45.00;;;23.05;;
34960;SDS011;30789;52.030;7.110;2023-04-29T00:51:50;49.08;;;24.20;;
34960;SDS011;30789;52.030;7.110;2023-04-29T00:54:17;44.33;;;21.90;;
34960;SDS011;30789;52.030;7.110;2023-04-29T00:56:44;43.55;;;22.67;;
34960;SDS011;30789;52.030;7.110;2023-04-29T00:59:11;45.72;;;21.90;;
34960;SDS011;30789;52.030;7.110;2023-04-29T01:01:39;45.75;;;22.42;;
34960;SDS011;30789;52.030;7.110;2023-04-29T01:04:08;42.55;;;22.35;;
34960;SDS011;30789;52.030;7.110;2023-04-29T01:06:37;47.78;;;22.90;;
34960;SDS011;30789;52.030;7.110;2023-04-29T01:09:16;39.38;;;21.23;;
34960;SDS011;30789;52.030;7.110;2023-04-29T01:11:54;37.63;;;22.08;;
34960;SDS011;30789;52.030;7.110;2023-04-29T01:14:31;40.55;;;20.98;;
34960;SDS011;30789;52.030;7.110;2023-04-29T01:16:59;40.33;;;20.40;;
34960;SDS011;30789;52.030;7.110;2023-04-29T01:19:36;36.97;;;20.88;;
34960;SDS011;30789;52.030;7.110;2023-04-29T01:22:06;36.03;;;19.88;;
34960;SDS011;30789;52.030;7.110;2023-04-29T01:24:33;33.97;;;19.40;;
34960;SDS011;30789;52.030;7.110;2023-04-29T01:27:01;36.22;;;20.00;;
34960;SDS011;30789;52.030;7.110;2023-04-29T01:29:39;34.55;;;20.65;;
34960;SDS011;30789;52.030;7.110;2023-04-29T01:32:12;32.78;;;18.98;;
34960;SDS011;30789;52.030;7.110;2023-04-29T01:34:43;35.72;;;21.25;;
34960;SDS011;30789;52.030;7.110;2023-04-29T01:37:21;34.40;;;20.90;;
34960;SDS011;30789;52.030;7.110;2023-04-29T01:40:03;38.78;;;22.55;;
34960;SDS011;30789;52.030;7.110;2023-04-29T01:42:35;37.30;;;22.25;;
34960;SDS011;30789;52.030;7.110;2023-04-29T01:45:05;36.75;;;22.95;;
34960;SDS011;30789;52.030;7.110;2023-04-29T01:47:35;41.42;;;24.55;;
34960;SDS011;30789;52.030;7.110;2023-04-29T01:50:04;47.70;;;26.23;;
34960;SDS011;30789;52.030;7.110;2023-04-29T01:52:31;44.70;;;24.38;;
34960;SDS011;30789;52.030;7.110;2023-04-29T01:54:57;49.47;;;28.05;;
34960;SDS011;30789;52.030;7.110;2023-04-29T01:57:25;45.17;;;26.27;;
34960;SDS011;30789;52.030;7.110;2023-04-29T01:59:52;48.33;;;28.00;;
34960;SDS011;30789;52.030;7.110;2023-04-29T02:02:18;51.17;;;26.83;;
34960;SDS011;30789;52.030;7.110;2023-04-29T02:04:47;47.65;;;27.33;;
34960;SDS011;30789;52.030;7.110;2023-04-29T02:07:14;48.45;;;28.48;;
34960;SDS011;30789;52.030;7.110;2023-04-29T02:09:41;48.20;;;27.15;;
34960;SDS011;30789;52.030;7.110;2023-04-29T02:12:07;54.03;;;28.98;;
34960;SDS011;30789;52.030;7.110;2023-04-29T02:14:35;41.63;;;25.95;;
34960;SDS011;30789;52.030;7.110;2023-04-29T02:17:01;49.90;;;27.00;;
34960;SDS011;30789;52.030;7.110;2023-04-29T02:19:28;55.00;;;28.05;;
34960;SDS011;30789;52.030;7.110;2023-04-29T02:21:54;46.33;;;26.10;;
34960;SDS011;30789;52.030;7.110;2023-04-29T02:24:21;52.85;;;29.30;;
34960;SDS011;30789;52.030;7.110;2023-04-29T02:26:47;53.63;;;29.45;;
34960;SDS011;30789;52.030;7.110;2023-04-29T02:29:14;57.25;;;28.65;;
34960;SDS011;30789;52.030;7.110;2023-04-29T02:31:42;52.45;;;29.05;;
34960;SDS011;30789;52.030;7.110;2023-04-29T02:34:09;45.30;;;26.83;;
34960;SDS011;30789;52.030;7.110;2023-04-29T02:36:35;45.88;;;27.80;;
34960;SDS011;30789;52.030;7.110;2023-04-29T02:39:02;47.63;;;27.58;;
34960;SDS011;30789;52.030;7.110;2023-04-29T02:41:28;48.20;;;26.52;;
34960;SDS011;30789;52.030;7.110;2023-04-29T02:43:55;49.80;;;25.92;;
34960;SDS011;30789;52.030;7.110;2023-04-29T02:46:22;45.60;;;26.33;;
34960;SDS011;30789;52.030;7.110;2023-04-29T02:48:49;44.40;;;25.73;;
34960;SDS011;30789;52.030;7.110;2023-04-29T02:51:16;45.88;;;24.77;;
34960;SDS011;30789;52.030;7.110;2023-04-29T02:53:42;48.50;;;26.13;;
34960;SDS011;30789;52.030;7.110;2023-04-29T02:56:09;45.17;;;25.50;;
34960;SDS011;30789;52.030;7.110;2023-04-29T02:58:35;42.53;;;25.42;;
34960;SDS011;30789;52.030;7.110;2023-04-29T03:01:02;46.42;;;25.48;;
34960;SDS011;30789;52.030;7.110;2023-04-29T03:03:28;41.10;;;24.77;;
34960;SDS011;30789;52.030;7.110;2023-04-29T03:05:56;43.65;;;26.40;;
34960;SDS011;30789;52.030;7.110;2023-04-29T03:08:22;44.33;;;25.17;;
34960;SDS011;30789;52.030;7.110;2023-04-29T03:10:49;39.75;;;25.27;;
34960;SDS011;30789;52.030;7.110;2023-04-29T03:13:15;42.88;;;24.83;;
34960;SDS011;30789;52.030;7.110;2023-04-29T03:15:42;42.97;;;24.77;;
34960;SDS011;30789;52.030;7.110;2023-04-29T03:18:09;44.83;;;25.70;;
34960;SDS011;30789;52.030;7.110;2023-04-29T03:20:35;36.83;;;23.48;;
34960;SDS011;30789;52.030;7.110;2023-04-29T03:23:03;39.65;;;22.83;;
34960;SDS011;30789;52.030;7.110;2023-04-29T03:25:29;37.42;;;24.15;;
34960;SDS011;30789;52.030;7.110;2023-04-29T03:27:56;39.65;;;23.13;;
34960;SDS011;30789;52.030;7.110;2023-04-29T03:30:22;38.47;;;22.55;;
34960;SDS011;30789;52.030;7.110;2023-04-29T03:32:49;37.58;;;22.67;;
34960;SDS011;30789;52.030;7.110;2023-04-29T03:35:15;35.17;;;21.90;;
34960;SDS011;30789;52.030;7.110;2023-04-29T03:37:42;37.15;;;22.40;;
34960;SDS011;30789;52.030;7.110;2023-04-29T03:40:11;38.55;;;23.27;;
34960;SDS011;30789;52.030;7.110;2023-04-29T03:42:38;37.42;;;22.58;;
34960;SDS011;30789;52.030;7.110;2023-04-29T03:45:05;33.10;;;21.92;;
34960;SDS011;30789;52.030;7.110;2023-04-29T03:47:32;39.63;;;22.45;;
34960;SDS011;30789;52.030;7.110;2023-04-29T03:50:00;37.75;;;23.35;;
34960;SDS011;30789;52.030;7.110;2023-04-29T03:52:26;35.50;;;21.45;;
34960;SDS011;30789;52.030;7.110;2023-04-29T03:54:53;38.60;;;22.63;;
34960;SDS011;30789;52.030;7.110;2023-04-29T03:57:21;36.22;;;22.30;;
34960;SDS011;30789;52.030;7.110;2023-04-29T03:59:47;31.50;;;20.75;;
34960;SDS011;30789;52.030;7.110;2023-04-29T04:02:15;36.67;;;21.17;;
34960;SDS011;30789;52.030;7.110;2023-04-29T04:04:41;33.67;;;21.33;;
34960;SDS011;30789;52.030;7.110;2023-04-29T04:07:08;34.08;;;21.30;;
34960;SDS011;30789;52.030;7.110;2023-04-29T04:09:35;36.42;;;20.40;;
34960;SDS011;30789;52.030;7.110;2023-04-29T04:12:02;32.22;;;20.35;;
34960;SDS011;30789;52.030;7.110;2023-04-29T04:14:30;32.08;;;20.83;;
34960;SDS011;30789;52.030;7.110;2023-04-29T04:16:56;32.10;;;20.38;;
34960;SDS011;30789;52.030;7.110;2023-04-29T04:19:23;32.28;;;20.15;;
34960;SDS011;30789;52.030;7.110;2023-04-29T04:21:51;32.03;;;21.30;;
34960;SDS011;30789;52.030;7.110;2023-04-29T04:24:17;34.00;;;21.05;;
34960;SDS011;30789;52.030;7.110;2023-04-29T04:26:44;32.45;;;20.92;;
34960;SDS011;30789;52.030;7.110;2023-04-29T04:29:10;35.10;;;22.40;;
34960;SDS011;30789;52.030;7.110;2023-04-29T04:31:38;34.15;;;20.70;;
34960;SDS011;30789;52.030;7.110;2023-04-29T04:34:04;32.58;;;21.27;;
34960;SDS011;30789;52.030;7.110;2023-04-29T04:36:31;33.63;;;20.85;;
34960;SDS011;30789;52.030;7.110;2023-04-29T04:38:57;39.05;;;21.13;;
34960;SDS011;30789;52.030;7.110;2023-04-29T04:41:24;35.63;;;21.63;;
34960;SDS011;30789;52.030;7.110;2023-04-29T04:43:50;32.20;;;21.17;;
34960;SDS011;30789;52.030;7.110;2023-04-29T04:46:17;41.75;;;22.95;;
34960;SDS011;30789;52.030;7.110;2023-04-29T04:48:45;39.10;;;21.67;;
34960;SDS011;30789;52.030;7.110;2023-04-29T04:51:12;36.58;;;22.33;;
34960;SDS011;30789;52.030;7.110;2023-04-29T04:53:39;40.58;;;21.73;;
34960;SDS011;30789;52.030;7.110;2023-04-29T04:56:06;37.90;;;21.42;;
34960;SDS011;30789;52.030;7.110;2023-04-29T04:58:33;37.10;;;22.10;;
34960;SDS011;30789;52.030;7.110;2023-04-29T05:01:00;41.13;;;23.65;;
34960;SDS011;30789;52.030;7.110;2023-04-29T05:03:26;38.05;;;22.95;;
34960;SDS011;30789;52.030;7.110;2023-04-29T05:05:54;38.72;;;21.73;;
34960;SDS011;30789;52.030;7.110;2023-04-29T05:08:21;41.80;;;23.80;;
34960;SDS011;30789;52.030;7.110;2023-04-29T05:10:48;40.00;;;21.92;;
34960;SDS011;30789;52.030;7.110;2023-04-29T05:13:14;43.08;;;24.02;;
34960;SDS011;30789;52.030;7.110;2023-04-29T05:15:41;42.28;;;23.77;;
34960;SDS011;30789;52.030;7.110;2023-04-29T05:18:08;41.08;;;23.42;;
34960;SDS011;30789;52.030;7.110;2023-04-29T05:20:35;40.63;;;23.35;;
34960;SDS011;30789;52.030;7.110;2023-04-29T05:23:03;38.53;;;23.77;;
34960;SDS011;30789;52.030;7.110;2023-04-29T05:25:29;37.50;;;23.50;;
34960;SDS011;30789;52.030;7.110;2023-04-29T05:27:56;42.45;;;23.73;;
34960;SDS011;30789;52.030;7.110;2023-04-29T05:30:22;41.78;;;24.02;;
34960;SDS011;30789;52.030;7.110;2023-04-29T05:32:49;39.63;;;24.25;;
34960;SDS011;30789;52.030;7.110;2023-04-29T05:35:15;44.67;;;25.42;;
34960;SDS011;30789;52.030;7.110;2023-04-29T05:37:42;40.53;;;22.67;;
34960;SDS011;30789;52.030;7.110;2023-04-29T05:40:10;44.58;;;24.10;;
34960;SDS011;30789;52.030;7.110;2023-04-29T05:42:37;44.65;;;24.92;;
34960;SDS011;30789;52.030;7.110;2023-04-29T05:45:04;45.08;;;23.55;;
34960;SDS011;30789;52.030;7.110;2023-04-29T05:47:31;41.33;;;24.73;;
34960;SDS011;30789;52.030;7.110;2023-04-29T05:49:58;50.95;;;24.67;;
34960;SDS011;30789;52.030;7.110;2023-04-29T05:52:24;47.15;;;25.77;;
34960;SDS011;30789;52.030;7.110;2023-04-29T05:54:51;44.20;;;25.30;;
34960;SDS011;30789;52.030;7.110;2023-04-29T05:57:19;50.67;;;25.88;;
34960;SDS011;30789;52.030;7.110;2023-04-29T05:59:45;46.00;;;26.30;;
34960;SDS011;30789;52.030;7.110;2023-04-29T06:02:12;43.70;;;25.63;;
34960;SDS011;30789;52.030;7.110;2023-04-29T06:04:38;51.38;;;26.83;;
34960;SDS011;30789;52.030;7.110;2023-04-29T06:07:05;48.35;;;25.98;;
34960;SDS011;30789;52.030;7.110;2023-04-29T06:09:33;49.53;;;26.85;;
34960;SDS011;30789;52.030;7.110;2023-04-29T06:11:59;49.17;;;24.33;;
34960;SDS011;30789;52.030;7.110;2023-04-29T06:14:28;46.45;;;25.52;;
34960;SDS011;30789;52.030;7.110;2023-04-29T06:16:54;44.92;;;24.98;;
34960;SDS011;30789;52.030;7.110;2023-04-29T06:19:21;46.70;;;26.60;;
34960;SDS011;30789;52.030;7.110;2023-04-29T06:21:49;45.03;;;26.10;;
34960;SDS011;30789;52.030;7.110;2023-04-29T06:24:15;45.38;;;25.52;;
34960;SDS011;30789;52.030;7.110;2023-04-29T06:26:42;45.70;;;25.13;;
34960;SDS011;30789;52.030;7.110;2023-04-29T06:29:08;46.80;;;25.08;;
34960;SDS011;30789;52.030;7.110;2023-04-29T06:31:36;39.92;;;24.23;;
34960;SDS011;30789;52.030;7.110;2023-04-29T06:34:03;43.65;;;25.45;;
34960;SDS011;30789;52.030;7.110;2023-04-29T06:36:30;41.08;;;24.55;;
34960;SDS011;30789;52.030;7.110;2023-04-29T06:38:57;45.13;;;24.88;;
34960;SDS011;30789;52.030;7.110;2023-04-29T06:41:23;43.83;;;24.75;;
34960;SDS011;30789;52.030;7.110;2023-04-29T06:43:51;43.60;;;25.02;;
34960;SDS011;30789;52.030;7.110;2023-04-29T06:46:17;42.78;;;23.90;;
34960;SDS011;30789;52.030;7.110;2023-04-29T06:48:45;40.78;;;23.70;;
34960;SDS011;30789;52.030;7.110;2023-04-29T06:51:12;42.95;;;23.98;;
34960;SDS011;30789;52.030;7.110;2023-04-29T06:53:38;45.63;;;23.08;;
34960;SDS011;30789;52.030;7.110;2023-04-29T06:56:05;46.17;;;25.85;;
34960;SDS011;30789;52.030;7.110;2023-04-29T06:58:33;40.17;;;23.10;;
34960;SDS011;30789;52.030;7.110;2023-04-29T07:00:59;44.47;;;23.15;;
34960;SDS011;30789;52.030;7.110;2023-04-29T07:03:27;48.58;;;23.95;;
34960;SDS011;30789;52.030;7.110;2023-04-29T07:05:55;47.28;;;24.80;;
34960;SDS011;30789;52.030;7.110;2023-04-29T07:08:21;39.22;;;23.25;;
34960;SDS011;30789;52.030;7.110;2023-04-29T07:10:52;39.95;;;21.90;;
34960;SDS011;30789;52.030;7.110;2023-04-29T07:13:19;40.63;;;21.85;;
34960;SDS011;30789;52.030;7.110;2023-04-29T07:15:46;39.55;;;22.80;;
34960;SDS011;30789;52.030;7.110;2023-04-29T07:18:12;47.78;;;22.80;;
34960;SDS011;30789;52.030;7.110;2023-04-29T07:20:39;40.85;;;22.88;;
34960;SDS011;30789;52.030;7.110;2023-04-29T07:23:07;36.70;;;21.92;;
34960;SDS011;30789;52.030;7.110;2023-04-29T07:25:34;35.20;;;21.58;;
34960;SDS011;30789;52.030;7.110;2023-04-29T07:28:00;36.47;;;20.60;;
34960;SDS011;30789;52.030;7.110;2023-04-29T07:30:27;34.42;;;19.83;;
34960;SDS011;30789;52.030;7.110;2023-04-29T07:32:54;35.53;;;20.63;;
34960;SDS011;30789;52.030;7.110;2023-04-29T07:35:20;32.15;;;19.55;;
34960;SDS011;30789;52.030;7.110;2023-04-29T07:37:46;34.03;;;19.23;;
34960;SDS011;30789;52.030;7.110;2023-04-29T07:40:14;31.63;;;20.70;;
34960;SDS011;30789;52.030;7.110;2023-04-29T07:42:41;34.45;;;20.85;;
34960;SDS011;30789;52.030;7.110;2023-04-29T07:45:08;33.25;;;20.30;;
34960;SDS011;30789;52.030;7.110;2023-04-29T07:47:35;31.45;;;19.80;;
34960;SDS011;30789;52.030;7.110;2023-04-29T07:50:02;33.42;;;19.00;;
34960;SDS011;30789;52.030;7.110;2023-04-29T07:52:29;30.70;;;19.27;;
34960;SDS011;30789;52.030;7.110;2023-04-29T07:54:56;33.80;;;18.48;;
34960;SDS011;30789;52.030;7.110;2023-04-29T07:57:24;34.88;;;19.27;;
34960;SDS011;30789;52.030;7.110;2023-04-29T07:59:51;31.00;;;19.98;;
34960;SDS011;30789;52.030;7.110;2023-04-29T08:02:18;33.08;;;18.63;;
34960;SDS011;30789;52.030;7.110;2023-04-29T08:04:44;30.27;;;18.77;;
34960;SDS011;30789;52.030;7.110;2023-04-29T08:07:11;33.22;;;18.23;;
34960;SDS011;30789;52.030;7.110;2023-04-29T08:09:38;28.02;;;17.52;;
34960;SDS011;30789;52.030;7.110;2023-04-29T08:12:04;29.08;;;18.23;;
34960;SDS011;30789;52.030;7.110;2023-04-29T08:14:32;29.63;;;19.13;;
34960;SDS011;30789;52.030;7.110;2023-04-29T08:16:59;27.00;;;17.90;;
34960;SDS011;30789;52.030;7.110;2023-04-29T08:19:25;29.73;;;18.33;;
34960;SDS011;30789;52.030;7.110;2023-04-29T08:21:52;28.88;;;17.73;;
34960;SDS011;30789;52.030;7.110;2023-04-29T08:24:18;28.52;;;18.05;;
34960;SDS011;30789;52.030;7.110;2023-04-29T08:26:46;26.08;;;16.25;;
34960;SDS011;30789;52.030;7.110;2023-04-29T08:29:12;24.52;;;15.40;;
34960;SDS011;30789;52.030;7.110;2023-04-29T08:31:41;23.77;;;16.15;;
34960;SDS011;30789;52.030;7.110;2023-04-29T08:34:08;23.50;;;16.33;;
34960;SDS011;30789;52.030;7.110;2023-04-29T08:36:34;36.35;;;15.88;;
34960;SDS011;30789;52.030;7.110;2023-04-29T08:39:02;22.85;;;15.80;;
34960;SDS011;30789;52.030;7.110;2023-04-29T08:41:30;24.25;;;15.23;;
34960;SDS011;30789;52.030;7.110;2023-04-29T08:43:57;22.52;;;14.95;;
34960;SDS011;30789;52.030;7.110;2023-04-29T08:46:24;25.38;;;15.70;;
34960;SDS011;30789;52.030;7.110;2023-04-29T08:48:52;21.95;;;14.80;;
34960;SDS011;30789;52.030;7.110;2023-04-29T08:51:21;26.58;;;15.75;;
34960;SDS011;30789;52.030;7.110;2023-04-29T08:53:48;24.65;;;14.75;;
34960;SDS011;30789;52.030;7.110;2023-04-29T08:56:15;19.15;;;13.95;;
34960;SDS011;30789;52.030;7.110;2023-04-29T08:58:44;24.38;;;14.23;;
34960;SDS011;30789;52.030;7.110;2023-04-29T09:01:11;21.58;;;14.50;;
34960;SDS011;30789;52.030;7.110;2023-04-29T09:03:39;22.20;;;13.82;;
34960;SDS011;30789;52.030;7.110;2023-04-29T09:06:13;21.10;;;13.88;;
34960;SDS011;30789;52.030;7.110;2023-04-29T09:08:40;21.75;;;13.98;;
34960;SDS011;30789;52.030;7.110;2023-04-29T09:11:07;23.02;;;14.00;;
34960;SDS011;30789;52.030;7.110;2023-04-29T09:13:35;21.67;;;14.25;;
34960;SDS011;30789;52.030;7.110;2023-04-29T09:16:02;20.15;;;12.88;;
34960;SDS011;30789;52.030;7.110;2023-04-29T09:18:43;20.10;;;12.52;;
34960;SDS011;30789;52.030;7.110;2023-04-29T09:21:16;21.48;;;13.15;;
34960;SDS011;30789;52.030;7.110;2023-04-29T09:23:44;19.10;;;12.93;;
34960;SDS011;30789;52.030;7.110;2023-04-29T09:26:11;19.13;;;12.23;;
34960;SDS011;30789;52.030;7.110;2023-04-29T09:28:38;20.88;;;13.65;;
34960;SDS011;30789;52.030;7.110;2023-04-29T09:31:07;17.90;;;12.57;;
34960;SDS011;30789;52.030;7.110;2023-04-29T09:33:50;20.25;;;12.75;;
34960;SDS011;30789;52.030;7.110;2023-04-29T09:36:38;23.50;;;12.88;;
34960;SDS011;30789;52.030;7.110;2023-04-29T09:39:06;16.98;;;12.27;;
34960;SDS011;30789;52.030;7.110;2023-04-29T09:41:40;20.92;;;12.15;;
34960;SDS011;30789;52.030;7.110;2023-04-29T09:44:09;18.67;;;12.63;;
34960;SDS011;30789;52.030;7.110;2023-04-29T09:46:36;20.13;;;12.07;;
34960;SDS011;30789;52.030;7.110;2023-04-29T09:49:03;20.90;;;11.32;;
34960;SDS011;30789;52.030;7.110;2023-04-29T09:51:30;17.00;;;11.10;;
34960;SDS011;30789;52.030;7.110;2023-04-29T09:53:59;18.63;;;11.75;;
34960;SDS011;30789;52.030;7.110;2023-04-29T09:56:27;19.70;;;11.82;;
34960;SDS011;30789;52.030;7.110;2023-04-29T09:58:55;20.85;;;12.23;;
34960;SDS011;30789;52.030;7.110;2023-04-29T10:01:22;17.83;;;11.52;;
34960;SDS011;30789;52.030;7.110;2023-04-29T10:03:50;16.08;;;11.27;;
34960;SDS011;30789;52.030;7.110;2023-04-29T10:06:19;18.95;;;11.40;;
34960;SDS011;30789;52.030;7.110;2023-04-29T10:08:47;17.55;;;10.65;;
34960;SDS011;30789;52.030;7.110;2023-04-29T10:11:15;13.93;;;9.63;;
34960;SDS011;30789;52.030;7.110;2023-04-29T10:13:43;13.57;;;10.02;;
34960;SDS011;30789;52.030;7.110;2023-04-29T10:16:11;14.88;;;10.70;;
34960;SDS011;30789;52.030;7.110;2023-04-29T10:18:47;17.60;;;10.27;;
34960;SDS011;30789;52.030;7.110;2023-04-29T10:21:17;14.60;;;10.40;;
34960;SDS011;30789;52.030;7.110;2023-04-29T10:23:46;16.95;;;10.00;;
34960;SDS011;30789;52.030;7.110;2023-04-29T10:26:13;15.43;;;10.15;;
34960;SDS011;30789;52.030;7.110;2023-04-29T10:28:43;16.15;;;10.88;;
34960;SDS011;30789;52.030;7.110;2023-04-29T10:31:13;12.60;;;10.07;;
34960;SDS011;30789;52.030;7.110;2023-04-29T10:33:43;13.70;;;9.15;;
34960;SDS011;30789;52.030;7.110;2023-04-29T10:36:11;13.40;;;8.80;;
34960;SDS011;30789;52.030;7.110;2023-04-29T10:38:39;14.75;;;9.15;;
34960;SDS011;30789;52.030;7.110;2023-04-29T10:41:12;16.77;;;9.27;;
34960;SDS011;30789;52.030;7.110;2023-04-29T10:43:44;12.07;;;9.02;;
34960;SDS011;30789;52.030;7.110;2023-04-29T10:46:20;13.15;;;8.48;;
34960;SDS011;30789;52.030;7.110;2023-04-29T10:48:48;11.52;;;7.90;;
34960;SDS011;30789;52.030;7.110;2023-04-29T10:54:08;13.88;;;8.73;;
34960;SDS011;30789;52.030;7.110;2023-04-29T10:56:40;10.02;;;7.35;;
34960;SDS011;30789;52.030;7.110;2023-04-29T10:59:08;10.48;;;8.00;;
34960;SDS011;30789;52.030;7.110;2023-04-29T11:01:40;11.88;;;8.35;;
34960;SDS011;30789;52.030;7.110;2023-04-29T11:04:08;10.68;;;8.60;;
34960;SDS011;30789;52.030;7.110;2023-04-29T11:06:40;9.52;;;8.20;;
34960;SDS011;30789;52.030;7.110;2023-04-29T11:09:09;11.93;;;8.07;;
34960;SDS011;30789;52.030;7.110;2023-04-29T11:11:47;11.40;;;8.07;;
34960;SDS011;30789;52.030;7.110;2023-04-29T11:14:30;11.07;;;8.05;;
34960;SDS011;30789;52.030;7.110;2023-04-29T11:17:00;10.57;;;8.25;;
34960;SDS011;30789;52.030;7.110;2023-04-29T11:19:31;12.10;;;7.82;;
34960;SDS011;30789;52.030;7.110;2023-04-29T11:22:09;13.27;;;7.40;;
34960;SDS011;30789;52.030;7.110;2023-04-29T11:24:48;11.35;;;7.03;;
34960;SDS011;30789;52.030;7.110;2023-04-29T11:27:17;9.90;;;6.95;;
34960;SDS011;30789;52.030;7.110;2023-04-29T11:29:44;10.80;;;7.18;;
34960;SDS011;30789;52.030;7.110;2023-04-29T11:32:11;9.27;;;7.40;;
34960;SDS011;30789;52.030;7.110;2023-04-29T11:34:38;10.75;;;6.97;;
34960;SDS011;30789;52.030;7.110;2023-04-29T11:37:04;10.07;;;6.57;;
34960;SDS011;30789;52.030;7.110;2023-04-29T11:39:32;12.68;;;6.57;;
34960;SDS011;30789;52.030;7.110;2023-04-29T11:42:02;11.20;;;6.72;;
34960;SDS011;30789;52.030;7.110;2023-04-29T11:44:31;10.45;;;7.40;;
34960;SDS011;30789;52.030;7.110;2023-04-29T11:47:00;11.85;;;7.15;;
34960;SDS011;30789;52.030;7.110;2023-04-29T11:49:28;9.05;;;6.72;;
34960;SDS011;30789;52.030;7.110;2023-04-29T11:51:55;11.95;;;6.78;;
34960;SDS011;30789;52.030;7.110;2023-04-29T11:54:23;11.88;;;7.00;;
34960;SDS011;30789;52.030;7.110;2023-04-29T11:56:51;10.93;;;7.30;;
34960;SDS011;30789;52.030;7.110;2023-04-29T11:59:18;8.05;;;6.25;;
34960;SDS011;30789;52.030;7.110;2023-04-29T12:01:46;7.65;;;6.07;;
34960;SDS011;30789;52.030;7.110;2023-04-29T12:04:13;6.93;;;5.57;;
34960;SDS011;30789;52.030;7.110;2023-04-29T12:06:40;8.25;;;5.43;;
34960;SDS011;30789;52.030;7.110;2023-04-29T12:09:06;8.52;;;6.10;;
34960;SDS011;30789;52.030;7.110;2023-04-29T12:11:33;12.07;;;7.18;;
34960;SDS011;30789;52.030;7.110;2023-04-29T12:14:00;10.00;;;5.95;;
34960;SDS011;30789;52.030;7.110;2023-04-29T12:16:30;7.43;;;5.18;;
34960;SDS011;30789;52.030;7.110;2023-04-29T12:18:58;7.18;;;5.57;;
34960;SDS011;30789;52.030;7.110;2023-04-29T12:21:25;9.75;;;5.45;;
34960;SDS011;30789;52.030;7.110;2023-04-29T12:23:52;7.75;;;4.55;;
34960;SDS011;30789;52.030;7.110;2023-04-29T12:26:19;8.93;;;4.95;;
34960;SDS011;30789;52.030;7.110;2023-04-29T12:28:47;10.32;;;5.13;;
34960;SDS011;30789;52.030;7.110;2023-04-29T12:31:14;4.50;;;4.05;;
34960;SDS011;30789;52.030;7.110;2023-04-29T12:33:41;7.00;;;4.32;;
34960;SDS011;30789;52.030;7.110;2023-04-29T12:36:15;8.27;;;4.60;;
34960;SDS011;30789;52.030;7.110;2023-04-29T12:38:43;6.85;;;5.00;;
34960;SDS011;30789;52.030;7.110;2023-04-29T12:41:10;7.18;;;4.72;;
34960;SDS011;30789;52.030;7.110;2023-04-29T12:43:38;6.25;;;4.20;;
34960;SDS011;30789;52.030;7.110;2023-04-29T12:46:05;6.72;;;4.20;;
34960;SDS011;30789;52.030;7.110;2023-04-29T12:48:33;6.00;;;4.50;;
34960;SDS011;30789;52.030;7.110;2023-04-29T12:51:01;5.65;;;4.10;;
34960;SDS011;30789;52.030;7.110;2023-04-29T12:53:29;7.18;;;4.18;;
34960;SDS011;30789;52.030;7.110;2023-04-29T12:55:56;5.47;;;3.90;;
34960;SDS011;30789;52.030;7.110;2023-04-29T12:58:23;4.78;;;3.47;;
34960;SDS011;30789;52.030;7.110;2023-04-29T13:00:49;5.05;;;3.78;;
34960;SDS011;30789;52.030;7.110;2023-04-29T13:03:16;5.05;;;3.65;;
34960;SDS011;30789;52.030;7.110;2023-04-29T13:05:42;4.80;;;3.90;;
34960;SDS011;30789;52.030;7.110;2023-04-29T13:08:11;4.68;;;3.65;;
34960;SDS011;30789;52.030;7.110;2023-04-29T13:10:39;4.78;;;3.70;;
34960;SDS011;30789;52.030;7.110;2023-04-29T13:13:05;5.25;;;4.05;;
34960;SDS011;30789;52.030;7.110;2023-04-29T13:15:34;5.63;;;4.15;;
34960;SDS011;30789;52.030;7.110;2023-04-29T13:18:00;6.72;;;4.45;;
34960;SDS011;30789;52.030;7.110;2023-04-29T13:20:27;6.20;;;4.90;;
34960;SDS011;30789;52.030;7.110;2023-04-29T13:22:53;6.18;;;4.32;;
34960;SDS011;30789;52.030;7.110;2023-04-29T13:25:20;6.07;;;4.18;;
34960;SDS011;30789;52.030;7.110;2023-04-29T13:27:48;7.75;;;4.15;;
34960;SDS011;30789;52.030;7.110;2023-04-29T13:30:14;6.38;;;4.70;;
34960;SDS011;30789;52.030;7.110;2023-04-29T13:32:41;5.32;;;4.32;;
34960;SDS011;30789;52.030;7.110;2023-04-29T13:35:08;5.75;;;3.92;;
34960;SDS011;30789;52.030;7.110;2023-04-29T13:37:35;5.50;;;2.67;;
34960;SDS011;30789;52.030;7.110;2023-04-29T13:40:01;3.97;;;2.28;;
34960;SDS011;30789;52.030;7.110;2023-04-29T13:42:28;4.68;;;2.58;;
34960;SDS011;30789;52.030;7.110;2023-04-29T13:44:56;3.15;;;2.40;;
34960;SDS011;30789;52.030;7.110;2023-04-29T13:47:23;4.97;;;2.90;;
34960;SDS011;30789;52.030;7.110;2023-04-29T13:49:49;3.88;;;3.25;;
34960;SDS011;30789;52.030;7.110;2023-04-29T13:52:16;3.03;;;2.72;;
34960;SDS011;30789;52.030;7.110;2023-04-29T13:54:42;5.00;;;3.22;;
34960;SDS011;30789;52.030;7.110;2023-04-29T13:57:08;4.32;;;2.97;;
34960;SDS011;30789;52.030;7.110;2023-04-29T13:59:35;5.25;;;3.15;;
34960;SDS011;30789;52.030;7.110;2023-04-29T14:02:03;3.95;;;2.83;;
34960;SDS011;30789;52.030;7.110;2023-04-29T14:04:29;5.78;;;3.13;;
34960;SDS011;30789;52.030;7.110;2023-04-29T14:06:56;5.05;;;2.70;;
34960;SDS011;30789;52.030;7.110;2023-04-29T14:09:22;5.50;;;3.45;;
34960;SDS011;30789;52.030;7.110;2023-04-29T14:11:50;3.95;;;3.53;;
34960;SDS011;30789;52.030;7.110;2023-04-29T14:14:16;6.05;;;3.38;;
34960;SDS011;30789;52.030;7.110;2023-04-29T14:16:43;5.13;;;3.15;;
34960;SDS011;30789;52.030;7.110;2023-04-29T14:19:11;5.47;;;3.33;;
34960;SDS011;30789;52.030;7.110;2023-04-29T14:21:37;4.95;;;3.60;;
34960;SDS011;30789;52.030;7.110;2023-04-29T14:24:04;3.92;;;3.03;;
34960;SDS011;30789;52.030;7.110;2023-04-29T14:26:30;5.07;;;3.80;;
34960;SDS011;30789;52.030;7.110;2023-04-29T14:28:57;4.95;;;3.22;;
34960;SDS011;30789;52.030;7.110;2023-04-29T14:31:24;5.13;;;3.33;;
34960;SDS011;30789;52.030;7.110;2023-04-29T14:33:52;4.57;;;3.20;;